createdAt,value
2018-12-29T00:00:54.222Z,100468.47
2018-12-29T00:02:23.754Z,100469.71
2018-12-29T00:03:53.414Z,100467.32
2018-12-29T00:05:24.513Z,100466.39
2018-12-29T00:06:55.197Z,100464.44
2018-12-29T00:08:25.965Z,100465.02
2018-12-29T00:09:56.243Z,100464.77
2018-12-29T00:11:26.214Z,100460.65
2018-12-29T00:12:56.666Z,100465.70
2018-12-29T00:14:27.366Z,100462.81
2018-12-29T00:15:56.911Z,100465.24
2018-12-29T00:17:26.434Z,100463.84
2018-12-29T00:18:55.978Z,100460.52
2018-12-29T00:20:33.098Z,100454.23
2018-12-29T00:22:03.711Z,100460.40
2018-12-29T00:23:33.251Z,100469.12
2018-12-29T00:25:02.966Z,100467.29
2018-12-29T00:26:32.837Z,100458.56
2018-12-29T00:28:02.529Z,100459.38
2018-12-29T00:29:32.473Z,100464.66
2018-12-29T00:31:02.255Z,100461.98
2018-12-29T00:32:31.789Z,100465.77
2018-12-29T00:34:01.337Z,100467.75
2018-12-29T00:35:31.015Z,100473.27
2018-12-29T00:37:00.541Z,100467.05
2018-12-29T00:38:30.068Z,100465.33
2018-12-29T00:39:59.612Z,100464.74
2018-12-29T00:41:29.611Z,100453.73
2018-12-29T00:42:59.285Z,100459.92
2018-12-29T00:44:28.937Z,100463.11
2018-12-29T00:45:58.490Z,100457.86
2018-12-29T00:47:28.299Z,100454.88
2018-12-29T00:48:57.872Z,100449.52
2018-12-29T00:50:27.894Z,100445.96
2018-12-29T00:51:57.417Z,100441.84
2018-12-29T00:53:27.285Z,100436.45
2018-12-29T00:54:56.939Z,100433.02
2018-12-29T00:56:26.462Z,100431.08
2018-12-29T00:57:56.139Z,100433.02
2018-12-29T00:59:25.676Z,100425.78
2018-12-29T01:00:55.480Z,100420.39
2018-12-29T01:02:25.010Z,100416.58
2018-12-29T01:03:54.531Z,100412.44
2018-12-29T01:05:24.107Z,100418.52
2018-12-29T01:06:53.624Z,100417.02
2018-12-29T01:08:26.756Z,100419.18
2018-12-29T01:09:59.830Z,100413.31
2018-12-29T01:11:29.354Z,100414.45
2018-12-29T01:12:58.863Z,100417.99
2018-12-29T01:14:28.542Z,100417.59
2018-12-29T01:15:58.406Z,100405.19
2018-12-29T01:17:28.042Z,100411.88
2018-12-29T01:18:57.595Z,100424.73
2018-12-29T01:20:27.547Z,100421.27
2018-12-29T01:21:57.348Z,100425.23
2018-12-29T01:23:26.900Z,100433.83
2018-12-29T01:24:56.749Z,100430.35
2018-12-29T01:26:26.275Z,100421.41
2018-12-29T01:27:56.876Z,100421.10
2018-12-29T01:29:26.632Z,100439.86
2018-12-29T01:31:05.908Z,100436.27
2018-12-29T01:33:15.263Z,100435.64
2018-12-29T01:34:44.785Z,100434.02
2018-12-29T01:36:14.411Z,100436.78
2018-12-29T01:37:44.036Z,100442.48
2018-12-29T01:39:13.616Z,100438.11
2018-12-29T01:40:43.136Z,100439.02
2018-12-29T01:42:12.973Z,100441.53
2018-12-29T01:43:42.493Z,100440.58
2018-12-29T01:45:17.421Z,100437.09
2018-12-29T01:46:43.439Z,100437.99
2018-12-29T01:48:13.284Z,100440.27
2018-12-29T01:49:42.787Z,100451.83
2018-12-29T01:51:12.681Z,100449.64
2018-12-29T01:52:42.570Z,100453.31
2018-12-29T01:54:12.109Z,100457.66
2018-12-29T01:55:41.642Z,100449.84
2018-12-29T01:57:11.224Z,100455.34
2018-12-29T01:58:40.830Z,100447.48
2018-12-29T02:00:10.807Z,100449.89
2018-12-29T02:01:40.383Z,100456.78
2018-12-29T02:03:09.894Z,100460.87
2018-12-29T02:04:39.701Z,100452.28
2018-12-29T02:06:09.272Z,100459.45
2018-12-29T02:07:38.788Z,100449.59
2018-12-29T02:09:08.396Z,100452.53
2018-12-29T02:10:37.922Z,100450.95
2018-12-29T02:12:07.440Z,100447.11
2018-12-29T02:13:36.958Z,100454.76
2018-12-29T02:15:06.570Z,100447.19
2018-12-29T02:16:36.090Z,100445.62
2018-12-29T02:18:05.608Z,100449.69
2018-12-29T02:19:35.104Z,100449.77
2018-12-29T02:21:04.629Z,100444.23
2018-12-29T02:22:34.568Z,100449.81
2018-12-29T02:24:04.105Z,100448.13
2018-12-29T02:25:33.936Z,100450.80
2018-12-29T02:27:03.467Z,100447.95
2018-12-29T02:28:32.999Z,100442.48
2018-12-29T02:30:02.904Z,100439.94
2018-12-29T02:31:32.959Z,100438.62
2018-12-29T02:33:02.705Z,100436.98
2018-12-29T02:34:32.202Z,100426.69
2018-12-29T02:36:01.724Z,100428.01
2018-12-29T02:37:31.446Z,100434.95
2018-12-29T02:39:00.969Z,100432.44
2018-12-29T02:40:30.808Z,100432.18
2018-12-29T02:42:00.353Z,100439.53
2018-12-29T02:43:29.861Z,100443.30
2018-12-29T02:44:59.384Z,100435.00
2018-12-29T02:46:28.904Z,100437.27
2018-12-29T02:47:58.416Z,100439.91
2018-12-29T02:49:28.275Z,100436.95
2018-12-29T02:50:57.894Z,100442.36
2018-12-29T02:52:27.392Z,100441.59
2018-12-29T02:53:56.925Z,100432.97
2018-12-29T02:55:26.439Z,100431.00
2018-12-29T02:56:56.031Z,100428.89
2018-12-29T02:58:25.545Z,100434.40
2018-12-29T02:59:55.039Z,100431.91
2018-12-29T03:01:24.567Z,100426.72
2018-12-29T03:02:54.072Z,100426.00
2018-12-29T03:04:23.578Z,100421.80
2018-12-29T03:05:53.093Z,100421.89
2018-12-29T03:07:22.635Z,100417.66
2018-12-29T03:08:52.138Z,100417.39
2018-12-29T03:10:21.674Z,100421.77
2018-12-29T03:11:51.461Z,100410.81
2018-12-29T03:13:21.381Z,100401.12
2018-12-29T03:14:51.055Z,100400.64
2018-12-29T03:16:20.553Z,100404.30
2018-12-29T03:17:50.389Z,100403.81
2018-12-29T03:19:19.874Z,100407.34
2018-12-29T03:20:49.387Z,100398.23
2018-12-29T03:22:18.919Z,100396.83
2018-12-29T03:23:48.422Z,100392.05
2018-12-29T03:25:17.922Z,100393.66
2018-12-29T03:26:47.455Z,100393.30
2018-12-29T03:28:17.229Z,100382.93
2018-12-29T03:29:46.765Z,100386.14
2018-12-29T03:31:16.394Z,100385.50
2018-12-29T03:32:45.909Z,100392.76
2018-12-29T03:34:15.427Z,100383.75
2018-12-29T03:35:44.999Z,100383.75
2018-12-29T03:37:14.546Z,100386.14
2018-12-29T03:38:44.299Z,100387.53
2018-12-29T03:40:14.165Z,100386.34
2018-12-29T03:41:43.785Z,100382.91
2018-12-29T03:43:13.293Z,100378.99
2018-12-29T03:44:42.811Z,100381.06
2018-12-29T03:46:12.789Z,100372.86
2018-12-29T03:47:42.605Z,100371.56
2018-12-29T03:49:12.395Z,100362.58
2018-12-29T03:50:42.324Z,100359.20
2018-12-29T03:52:12.052Z,100362.28
2018-12-29T03:53:53.670Z,100372.75
2018-12-29T03:55:23.309Z,100374.78
2018-12-29T03:56:53.292Z,100376.48
2018-12-29T03:58:22.988Z,100375.75
2018-12-29T03:59:52.497Z,100379.54
2018-12-29T04:01:22.023Z,100379.83
2018-12-29T04:02:51.550Z,100392.20
2018-12-29T04:04:21.089Z,100388.00
2018-12-29T04:05:50.597Z,100380.06
2018-12-29T04:07:20.100Z,100375.91
2018-12-29T04:09:26.716Z,100362.01
2018-12-29T04:10:56.426Z,100370.98
2018-12-29T04:12:28.514Z,100367.91
2018-12-29T04:13:58.008Z,100369.22
2018-12-29T04:16:38.958Z,100362.98
2018-12-29T04:18:17.868Z,100368.31
2018-12-29T04:19:47.918Z,100355.81
2018-12-29T04:21:17.718Z,100362.25
2018-12-29T04:22:47.421Z,100376.31
2018-12-29T04:24:18.059Z,100372.09
2018-12-29T04:25:47.768Z,100375.87
2018-12-29T04:27:17.450Z,100384.86
2018-12-29T04:31:00.597Z,100381.18
2018-12-29T04:32:30.480Z,100389.95
2018-12-29T04:34:00.311Z,100386.44
2018-12-29T04:35:30.323Z,100382.66
2018-12-29T04:37:00.187Z,100382.12
2018-12-29T04:38:29.717Z,100391.10
2018-12-29T04:39:59.217Z,100384.09
2018-12-29T04:41:28.721Z,100390.83
2018-12-29T04:42:58.231Z,100394.03
2018-12-29T04:44:27.763Z,100393.77
2018-12-29T04:45:57.411Z,100404.59
2018-12-29T04:47:27.218Z,100412.84
2018-12-29T04:48:56.900Z,100417.64
2018-12-29T04:50:26.422Z,100418.86
2018-12-29T04:51:56.282Z,100416.61
2018-12-29T04:53:25.833Z,100429.89
2018-12-29T04:54:55.330Z,100431.70
2018-12-29T04:56:25.066Z,100428.77
2018-12-29T04:57:54.605Z,100433.87
2018-12-29T04:59:24.405Z,100437.75
2018-12-29T05:00:54.208Z,100441.95
2018-12-29T05:02:23.748Z,100440.42
2018-12-29T05:03:53.351Z,100433.25
2018-12-29T05:05:23.131Z,100441.70
2018-12-29T05:06:52.636Z,100439.39
2018-12-29T05:08:22.283Z,100439.11
2018-12-29T05:09:52.339Z,100438.75
2018-12-29T05:11:22.240Z,100437.47
2018-12-29T05:12:51.742Z,100434.59
2018-12-29T05:14:21.521Z,100441.70
2018-12-29T05:15:51.027Z,100436.64
2018-12-29T05:17:20.870Z,100431.80
2018-12-29T05:18:50.813Z,100434.52
2018-12-29T05:20:20.667Z,100429.91
2018-12-29T05:21:50.475Z,100435.09
2018-12-29T05:23:20.010Z,100432.69
2018-12-29T05:24:49.548Z,100432.42
2018-12-29T05:26:19.050Z,100429.19
2018-12-29T05:27:48.851Z,100428.91
2018-12-29T05:29:25.917Z,100421.73
2018-12-29T05:30:55.440Z,100422.73
2018-12-29T05:32:25.286Z,100426.11
2018-12-29T05:33:55.381Z,100426.75
2018-12-29T05:35:24.912Z,100431.04
2018-12-29T05:36:54.606Z,100426.80
2018-12-29T05:38:24.297Z,100426.39
2018-12-29T05:39:53.824Z,100421.88
2018-12-29T05:41:23.494Z,100425.81
2018-12-29T05:42:53.018Z,100425.26
2018-12-29T05:44:22.770Z,100421.95
2018-12-29T05:45:52.943Z,100422.58
2018-12-29T05:47:22.670Z,100422.31
2018-12-29T05:48:52.453Z,100424.25
2018-12-29T05:50:22.031Z,100422.63
2018-12-29T05:51:51.644Z,100421.99
2018-12-29T05:53:21.149Z,100426.51
2018-12-29T05:54:51.309Z,100419.32
2018-12-29T05:56:21.173Z,100426.38
2018-12-29T05:57:51.034Z,100420.41
2018-12-29T05:59:20.565Z,100415.98
2018-12-29T06:00:50.160Z,100418.29
2018-12-29T06:02:20.084Z,100423.84
2018-12-29T06:03:49.632Z,100426.11
2018-12-29T06:05:19.403Z,100422.64
2018-12-29T06:06:49.294Z,100427.66
2018-12-29T06:08:18.858Z,100422.73
2018-12-29T06:09:48.413Z,100427.37
2018-12-29T06:11:18.221Z,100431.85
2018-12-29T06:12:47.709Z,100431.57
2018-12-29T06:14:17.599Z,100434.24
2018-12-29T06:15:47.104Z,100433.39
2018-12-29T06:17:47.429Z,100435.78
2018-12-29T06:19:16.920Z,100437.00
2018-12-29T06:20:46.434Z,100433.48
2018-12-29T06:22:15.940Z,100439.17
2018-12-29T06:23:45.871Z,100433.98
2018-12-29T06:25:15.565Z,100434.66
2018-12-29T06:26:45.087Z,100440.16
2018-12-29T06:28:14.808Z,100435.42
2018-12-29T06:29:44.369Z,100439.16
2018-12-29T06:31:13.900Z,100432.11
2018-12-29T06:32:43.436Z,100428.89
2018-12-29T06:34:12.931Z,100436.48
2018-12-29T06:35:42.468Z,100430.84
2018-12-29T06:37:11.999Z,100430.70
2018-12-29T06:38:41.533Z,100432.42
2018-12-29T06:40:11.464Z,100429.89
2018-12-29T06:41:40.966Z,100426.78
2018-12-29T06:43:10.479Z,100431.30
2018-12-29T06:44:40.008Z,100433.38
2018-12-29T06:48:53.966Z,100429.45
2018-12-29T06:50:23.455Z,100422.44
2018-12-29T06:51:53.175Z,100425.52
2018-12-29T06:53:22.690Z,100423.70
2018-12-29T06:54:52.449Z,100420.87
2018-12-29T06:56:21.972Z,100422.98
2018-12-29T06:57:51.686Z,100423.25
2018-12-29T06:59:21.338Z,100421.70
2018-12-29T07:00:51.212Z,100422.91
2018-12-29T07:02:20.915Z,100427.79
2018-12-29T07:03:50.430Z,100427.73
2018-12-29T07:05:19.934Z,100423.57
2018-12-29T07:07:01.523Z,100424.11
2018-12-29T07:08:31.090Z,100429.28
2018-12-29T07:10:00.599Z,100428.53
2018-12-29T07:11:30.127Z,100432.62
2018-12-29T07:12:59.656Z,100429.73
2018-12-29T07:14:29.164Z,100438.95
2018-12-29T07:15:58.688Z,100445.72
2018-12-29T07:17:28.749Z,100446.77
2018-12-29T07:18:58.321Z,100451.24
2018-12-29T07:20:28.238Z,100448.23
2018-12-29T07:21:57.758Z,100449.95
2018-12-29T07:23:27.813Z,100450.58
2018-12-29T07:24:57.460Z,100447.98
2018-12-29T07:26:28.419Z,100458.80
2018-12-29T07:27:57.996Z,100456.49
2018-12-29T07:29:28.349Z,100465.08
2018-12-29T07:30:58.112Z,100469.28
2018-12-29T07:32:28.326Z,100482.45
2018-12-29T07:33:58.299Z,100489.38
2018-12-29T07:35:29.417Z,100490.19
2018-12-29T07:36:58.922Z,100488.23
2018-12-29T07:38:28.464Z,100487.38
2018-12-29T07:39:57.999Z,100494.98
2018-12-29T07:41:27.932Z,100497.94
2018-12-29T07:42:57.617Z,100500.19
2018-12-29T07:44:42.478Z,100498.51
2018-12-29T07:46:14.901Z,100504.56
2018-12-29T07:47:44.440Z,100497.66
2018-12-29T07:49:14.360Z,100501.73
2018-12-29T07:50:43.925Z,100510.17
2018-12-29T07:52:13.593Z,100509.05
2018-12-29T07:53:43.848Z,100498.07
2018-12-29T07:55:17.942Z,100501.32
2018-12-29T07:56:50.866Z,100500.91
2018-12-29T07:58:21.116Z,100499.05
2018-12-29T07:59:58.948Z,100496.38
2018-12-29T08:01:29.723Z,100500.77
2018-12-29T08:03:00.743Z,100497.42
2018-12-29T08:04:33.793Z,100503.55
2018-12-29T08:06:07.672Z,100498.61
2018-12-29T08:07:42.375Z,100501.48
2018-12-29T08:09:14.159Z,100496.97
2018-12-29T08:11:08.076Z,100495.08
2018-12-29T08:12:40.923Z,100501.50
2018-12-29T08:14:15.161Z,100500.14
2018-12-29T08:15:45.389Z,100510.25
2018-12-29T08:17:20.374Z,100513.65
2018-12-29T08:18:57.194Z,100511.52
2018-12-29T08:20:32.632Z,100516.45
2018-12-29T08:22:02.772Z,100516.31
2018-12-29T08:23:45.783Z,100513.89
2018-12-29T08:25:22.905Z,100519.22
2018-12-29T08:27:17.397Z,100517.81
2018-12-29T08:31:10.173Z,100516.66
2018-12-29T08:32:45.716Z,100526.97
2018-12-29T08:34:17.123Z,100520.23
2018-12-29T08:35:47.459Z,100524.72
2018-12-29T08:37:17.480Z,100520.41
2018-12-29T08:38:50.718Z,100521.61
2018-12-29T08:40:21.258Z,100514.72
2018-12-29T08:41:52.008Z,100515.02
2018-12-29T08:43:24.269Z,100519.53
2018-12-29T08:44:57.295Z,100515.73
2018-12-29T08:46:27.544Z,100510.80
2018-12-29T08:48:04.611Z,100510.92
2018-12-29T08:49:38.506Z,100511.07
2018-12-29T08:51:11.845Z,100508.32
2018-12-29T08:52:45.738Z,100509.66
2018-12-29T08:54:22.457Z,100507.41
2018-12-29T08:55:53.435Z,100510.32
2018-12-29T08:57:26.477Z,100513.37
2018-12-29T08:59:00.520Z,100504.71
2018-12-29T09:00:31.110Z,100510.40
2018-12-29T09:02:04.336Z,100501.63
2018-12-29T09:03:38.786Z,100505.73
2018-12-29T09:05:12.844Z,100506.84
2018-12-29T09:06:44.238Z,100510.36
2018-12-29T09:08:19.589Z,100505.83
2018-12-29T09:09:49.421Z,100499.86
2018-12-29T09:11:23.686Z,100506.02
2018-12-29T09:12:53.671Z,100501.88
2018-12-29T09:14:23.892Z,100503.25
2018-12-29T09:15:53.969Z,100495.50
2018-12-29T09:17:23.748Z,100502.56
2018-12-29T09:18:54.465Z,100496.62
2018-12-29T09:20:24.280Z,100499.27
2018-12-29T09:21:54.180Z,100498.84
2018-12-29T09:23:24.089Z,100497.34
2018-12-29T09:24:54.063Z,100498.80
2018-12-29T09:26:24.543Z,100493.64
2018-12-29T09:27:54.396Z,100497.30
2018-12-29T09:29:24.595Z,100497.42
2018-12-29T09:30:54.793Z,100495.92
2018-12-29T09:32:24.963Z,100490.03
2018-12-29T09:33:54.705Z,100487.13
2018-12-29T09:35:24.610Z,100492.27
2018-12-29T09:36:54.487Z,100491.63
2018-12-29T09:38:24.417Z,100490.72
2018-12-29T09:39:54.484Z,100491.23
2018-12-29T09:41:25.374Z,100489.09
2018-12-29T09:42:55.347Z,100489.30
2018-12-29T09:44:25.298Z,100488.11
2018-12-29T09:45:55.278Z,100487.69
2018-12-29T09:47:25.241Z,100491.94
2018-12-29T09:48:55.074Z,100490.77
2018-12-29T09:50:24.952Z,100487.83
2018-12-29T09:51:57.806Z,100492.08
2018-12-29T09:53:27.901Z,100484.69
2018-12-29T09:54:58.073Z,100488.31
2018-12-29T09:56:27.987Z,100486.56
2018-12-29T09:57:57.870Z,100487.33
2018-12-29T09:59:48.964Z,100485.95
2018-12-29T10:01:18.741Z,100488.39
2018-12-29T10:02:48.621Z,100481.22
2018-12-29T10:04:18.423Z,100481.81
2018-12-29T10:05:48.795Z,100478.41
2018-12-29T10:07:18.707Z,100474.97
2018-12-29T10:08:51.997Z,100476.81
2018-12-29T10:10:21.703Z,100469.42
2018-12-29T10:11:51.443Z,100478.17
2018-12-29T10:13:21.281Z,100487.77
2018-12-29T10:14:51.132Z,100484.44
2018-12-29T10:16:21.282Z,100482.62
2018-12-29T10:17:51.360Z,100486.58
2018-12-29T10:19:21.417Z,100492.45
2018-12-29T10:20:51.399Z,100483.36
2018-12-29T10:22:21.619Z,100484.30
2018-12-29T10:23:51.340Z,100480.54
2018-12-29T10:25:21.921Z,100483.55
2018-12-29T10:26:52.030Z,100480.75
2018-12-29T10:28:22.185Z,100473.88
2018-12-29T10:30:23.068Z,100476.84
2018-12-29T10:31:52.911Z,100476.19
2018-12-29T10:33:23.171Z,100476.23
2018-12-29T10:34:52.840Z,100474.80
2018-12-29T10:36:22.671Z,100469.38
2018-12-29T10:37:52.345Z,100471.39
2018-12-29T10:39:22.561Z,100480.83
2018-12-29T10:40:52.482Z,100473.36
2018-12-29T10:42:22.808Z,100471.69
2018-12-29T10:43:52.835Z,100472.95
2018-12-29T10:45:22.601Z,100482.70
2018-12-29T10:46:52.421Z,100484.30
2018-12-29T10:48:22.026Z,100486.84
2018-12-29T10:49:51.847Z,100487.22
2018-12-29T10:51:21.747Z,100483.25
2018-12-29T10:52:51.520Z,100481.97
2018-12-29T10:54:21.933Z,100480.05
2018-12-29T10:55:52.168Z,100481.37
2018-12-29T10:57:22.060Z,100482.68
2018-12-29T10:59:01.149Z,100477.97
2018-12-29T11:02:19.263Z,100471.64
2018-12-29T11:03:49.134Z,100465.65
2018-12-29T11:05:18.857Z,100473.82
2018-12-29T11:06:49.242Z,100471.27
2018-12-29T11:08:18.965Z,100457.44
2018-12-29T11:09:48.539Z,100463.06
2018-12-29T11:11:18.505Z,100455.39
2018-12-29T11:12:48.431Z,100453.45
2018-12-29T11:14:18.857Z,100447.22
2018-12-29T11:15:48.710Z,100452.72
2018-12-29T11:17:18.747Z,100452.59
2018-12-29T11:18:49.191Z,100445.34
2018-12-29T11:20:19.470Z,100442.75
2018-12-29T11:21:55.997Z,100441.52
2018-12-29T11:23:26.270Z,100438.32
2018-12-29T11:24:57.024Z,100433.27
2018-12-29T11:26:27.027Z,100430.45
2018-12-29T11:27:57.161Z,100425.93
2018-12-29T11:29:27.214Z,100420.33
2018-12-29T11:31:01.758Z,100407.56
2018-12-29T11:32:32.226Z,100402.50
2018-12-29T11:34:05.548Z,100399.05
2018-12-29T11:35:36.377Z,100391.25
2018-12-29T11:37:06.379Z,100389.75
2018-12-29T11:38:36.889Z,100390.97
2018-12-29T11:40:07.899Z,100389.27
2018-12-29T11:41:37.721Z,100378.12
2018-12-29T11:43:07.960Z,100365.73
2018-12-29T11:44:38.074Z,100358.73
2018-12-29T11:46:10.356Z,100360.38
2018-12-29T11:47:40.745Z,100348.77
2018-12-29T11:49:17.866Z,100349.67
2018-12-29T11:50:43.355Z,100351.52
2018-12-29T11:52:13.105Z,100345.16
2018-12-29T11:53:42.801Z,100341.38
2018-12-29T11:55:12.626Z,100335.81
2018-12-29T11:56:43.049Z,100330.92
2018-12-29T11:58:13.259Z,100327.98
2018-12-29T11:59:43.273Z,100328.17
2018-12-29T12:01:14.791Z,100340.36
2018-12-29T12:02:44.559Z,100343.47
2018-12-29T12:04:14.167Z,100336.94
2018-12-29T12:05:44.022Z,100334.20
2018-12-29T12:07:13.999Z,100329.50
2018-12-29T12:08:43.729Z,100324.95
2018-12-29T12:10:13.644Z,100325.43
2018-12-29T12:11:43.657Z,100322.37
2018-12-29T12:13:13.302Z,100325.68
2018-12-29T12:14:42.984Z,100318.44
2018-12-29T12:16:12.695Z,100320.98
2018-12-29T12:17:42.628Z,100324.66
2018-12-29T12:19:12.313Z,100329.38
2018-12-29T12:20:41.975Z,100328.27
2018-12-29T12:22:11.764Z,100320.08
2018-12-29T12:23:41.477Z,100321.17
2018-12-29T12:25:11.571Z,100314.23
2018-12-29T12:26:41.374Z,100313.88
2018-12-29T12:28:11.322Z,100322.25
2018-12-29T12:29:41.447Z,100321.15
2018-12-29T12:31:11.521Z,100319.51
2018-12-29T12:32:41.243Z,100306.59
2018-12-29T12:34:10.825Z,100308.22
2018-12-29T12:35:41.634Z,100314.63
2018-12-29T12:37:11.835Z,100310.67
2018-12-29T12:38:41.795Z,100310.30
2018-12-29T12:40:11.388Z,100310.30
2018-12-29T12:41:41.149Z,100309.78
2018-12-29T12:43:10.887Z,100311.42
2018-12-29T12:44:41.206Z,100307.98
2018-12-29T12:46:11.242Z,100295.80
2018-12-29T12:47:40.984Z,100289.04
2018-12-29T12:49:10.630Z,100282.33
2018-12-29T12:50:40.239Z,100281.94
2018-12-29T12:52:09.862Z,100295.20
2018-12-29T12:53:39.873Z,100295.56
2018-12-29T12:55:09.617Z,100298.11
2018-12-29T12:56:39.210Z,100291.95
2018-12-29T12:58:09.126Z,100291.23
2018-12-29T12:59:39.110Z,100275.25
2018-12-29T13:01:08.700Z,100275.59
2018-12-29T13:02:38.536Z,100277.39
2018-12-29T13:04:08.159Z,100273.05
2018-12-29T13:05:37.998Z,100280.13
2018-12-29T13:07:08.043Z,100284.31
2018-12-29T13:08:37.664Z,100293.42
2018-12-29T13:10:08.577Z,100294.16
2018-12-29T13:11:38.304Z,100291.80
2018-12-29T13:13:08.700Z,100286.71
2018-12-29T13:14:38.512Z,100290.88
2018-12-29T13:16:09.476Z,100285.61
2018-12-29T13:17:39.388Z,100280.16
2018-12-29T13:19:09.045Z,100276.88
2018-12-29T13:20:38.926Z,100269.97
2018-12-29T13:22:09.117Z,100269.57
2018-12-29T13:23:38.843Z,100273.41
2018-12-29T13:25:08.986Z,100285.78
2018-12-29T13:26:38.632Z,100306.73
2018-12-29T13:28:08.602Z,100321.83
2018-12-29T13:29:38.613Z,100337.31
2018-12-29T13:31:08.610Z,100349.11
2018-12-29T13:32:38.261Z,100353.42
2018-12-29T13:34:08.946Z,100354.67
2018-12-29T13:35:38.563Z,100363.41
2018-12-29T13:37:08.698Z,100359.35
2018-12-29T13:38:38.673Z,100359.30
2018-12-29T13:40:08.803Z,100356.36
2018-12-29T13:41:38.467Z,100355.36
2018-12-29T13:43:08.596Z,100352.02
2018-12-29T13:44:38.399Z,100355.37
2018-12-29T13:46:08.752Z,100353.86
2018-12-29T13:47:38.566Z,100346.48
2018-12-29T13:49:08.167Z,100341.77
2018-12-29T13:50:39.434Z,100343.98
2018-12-29T13:52:09.112Z,100348.56
2018-12-29T13:53:39.180Z,100344.58
2018-12-29T13:55:08.973Z,100345.69
2018-12-29T13:56:38.859Z,100343.61
2018-12-29T13:58:08.460Z,100346.52
2018-12-29T13:59:38.433Z,100352.14
2018-12-29T14:01:08.264Z,100360.26
2018-12-29T14:02:38.036Z,100361.27
2018-12-29T14:04:07.887Z,100358.58
2018-12-29T14:05:37.461Z,100355.54
2018-12-29T14:07:07.119Z,100356.69
2018-12-29T14:08:36.849Z,100351.64
2018-12-29T14:10:06.706Z,100357.67
2018-12-29T14:11:36.401Z,100353.45
2018-12-29T14:13:06.126Z,100358.16
2018-12-29T14:14:36.114Z,100368.87
2018-12-29T14:16:05.639Z,100365.47
2018-12-29T14:17:35.236Z,100363.95
2018-12-29T14:19:05.742Z,100361.77
2018-12-29T14:20:35.319Z,100348.13
2018-12-29T14:22:05.126Z,100342.88
2018-12-29T14:23:36.288Z,100342.47
2018-12-29T14:25:05.947Z,100345.13
2018-12-29T14:26:36.152Z,100353.23
2018-12-29T14:28:06.524Z,100341.75
2018-12-29T14:29:36.588Z,100339.48
2018-12-29T14:31:06.168Z,100337.99
2018-12-29T14:32:36.384Z,100338.42
2018-12-29T14:34:06.451Z,100329.59
2018-12-29T14:40:55.476Z,100322.81
2018-12-29T14:42:25.792Z,100306.12
2018-12-29T14:43:55.397Z,100302.41
2018-12-29T14:45:25.631Z,100298.66
2018-12-29T14:46:55.998Z,100294.86
2018-12-29T14:48:25.908Z,100292.38
2018-12-29T14:49:55.572Z,100279.88
2018-12-29T14:51:25.236Z,100265.14
2018-12-29T14:52:55.257Z,100258.21
2018-12-29T14:54:25.215Z,100260.36
2018-12-29T14:55:54.762Z,100264.59
2018-12-29T14:57:24.630Z,100263.16
2018-12-29T14:58:54.223Z,100272.11
2018-12-29T15:00:24.149Z,100269.47
2018-12-29T15:01:53.774Z,100265.50
2018-12-29T15:03:25.461Z,100261.97
2018-12-29T15:04:55.022Z,100258.95
2018-12-29T15:06:25.729Z,100250.59
2018-12-29T15:07:55.780Z,100245.72
2018-12-29T15:09:25.576Z,100247.37
2018-12-29T15:10:55.432Z,100241.56
2018-12-29T15:12:25.560Z,100243.94
2018-12-29T15:13:55.464Z,100250.81
2018-12-29T15:15:25.550Z,100234.19
2018-12-29T15:16:55.600Z,100233.94
2018-12-29T15:18:25.208Z,100237.64
2018-12-29T15:19:55.156Z,100243.13
2018-12-29T15:21:24.838Z,100242.45
2018-12-29T15:22:54.961Z,100248.73
2018-12-29T15:24:24.895Z,100271.84
2018-12-29T15:25:54.392Z,100294.02
2018-12-29T15:27:23.917Z,100300.53
2018-12-29T15:28:53.515Z,100307.25
2018-12-29T15:30:23.443Z,100303.30
2018-12-29T15:31:52.970Z,100311.70
2018-12-29T15:33:23.320Z,100318.22
2018-12-29T15:34:53.162Z,100331.81
2018-12-29T15:36:22.700Z,100334.63
2018-12-29T15:37:53.545Z,100327.92
2018-12-29T15:39:23.601Z,100316.11
2018-12-29T15:40:53.918Z,100297.02
2018-12-29T15:42:24.494Z,100287.75
2018-12-29T15:43:54.100Z,100281.88
2018-12-29T15:45:23.648Z,100297.84
2018-12-29T15:46:53.727Z,100332.47
2018-12-29T15:48:23.323Z,100340.77
2018-12-29T15:49:53.034Z,100333.89
2018-12-29T15:51:22.576Z,100311.78
2018-12-29T15:52:52.123Z,100310.19
2018-12-29T15:54:22.171Z,100311.95
2018-12-29T15:55:52.073Z,100327.79
2018-12-29T15:57:22.017Z,100335.91
2018-12-29T15:59:01.352Z,100340.31
2018-12-29T16:00:31.002Z,100330.91
2018-12-29T16:02:01.331Z,100308.75
2018-12-29T16:03:31.495Z,100303.62
2018-12-29T16:05:01.391Z,100285.13
2018-12-29T16:06:31.519Z,100269.76
2018-12-29T16:08:01.424Z,100276.52
2018-12-29T16:09:31.634Z,100271.84
2018-12-29T16:11:01.162Z,100285.47
2018-12-29T16:12:30.793Z,100277.78
2018-12-29T16:14:00.855Z,100275.73
2018-12-29T16:15:30.757Z,100265.49
2018-12-29T16:17:01.159Z,100265.64
2018-12-29T16:18:30.952Z,100257.73
2018-12-29T16:20:00.563Z,100251.63
2018-12-29T16:21:30.223Z,100249.70
2018-12-29T16:23:00.370Z,100255.95
2018-12-29T16:24:30.293Z,100249.14
2018-12-29T16:25:59.826Z,100244.76
2018-12-29T16:27:29.692Z,100238.47
2018-12-29T16:28:59.610Z,100225.35
2018-12-29T16:30:29.273Z,100223.75
2018-12-29T16:31:59.181Z,100212.28
2018-12-29T16:33:28.964Z,100212.34
2018-12-29T16:34:58.969Z,100212.73
2018-12-29T16:36:28.562Z,100195.80
2018-12-29T16:37:58.168Z,100191.98
2018-12-29T16:39:28.169Z,100197.64
2018-12-29T16:40:58.397Z,100202.36
2018-12-29T16:42:28.488Z,100211.14
2018-12-29T16:43:58.669Z,100217.48
2018-12-29T16:45:28.703Z,100218.23
2018-12-29T16:46:58.357Z,100207.39
2018-12-29T16:48:28.470Z,100206.70
2018-12-29T16:49:58.387Z,100203.58
2018-12-29T16:51:28.082Z,100200.72
2018-12-29T16:52:57.654Z,100182.95
2018-12-29T16:54:27.230Z,100168.98
2018-12-29T16:55:57.314Z,100171.48
2018-12-29T16:57:27.307Z,100176.02
2018-12-29T16:58:56.871Z,100179.14
2018-12-29T17:00:53.022Z,100176.23
2018-12-29T17:02:22.675Z,100179.51
2018-12-29T17:03:52.461Z,100169.88
2018-12-29T17:05:22.093Z,100187.66
2018-12-29T17:06:52.093Z,100180.63
2018-12-29T17:08:22.160Z,100181.89
2018-12-29T17:09:52.951Z,100184.59
2018-12-29T17:11:22.613Z,100185.81
2018-12-29T17:12:53.309Z,100186.39
2018-12-29T17:14:23.409Z,100186.80
2018-12-29T17:15:52.952Z,100185.12
2018-12-29T17:17:22.499Z,100190.45
2018-12-29T17:18:52.091Z,100190.33
2018-12-29T17:20:21.681Z,100183.77
2018-12-29T17:21:51.495Z,100180.34
2018-12-29T17:23:21.117Z,100164.36
2018-12-29T17:24:50.817Z,100163.42
2018-12-29T17:26:20.815Z,100177.92
2018-12-29T17:27:50.446Z,100167.92
2018-12-29T17:29:21.890Z,100166.70